Mc Entire JNGB Airport
KMMT : now visible

Airfield :











YOU CAN JOIN US ON...

 
LOGIN :

Register | Disclaimer

   EN    FR    IT 

 









Legend :    VFR   Marginal VFR   IFR   Intensive IFR   Very Intensive IFR
Visi :
Ceiling :
>= 8 km
>= 3000ft
5 to 8 km
1000 to 3000 ft
1500m to 5 km
500 to 1000 ft
800 to 1500m
200 to 500 ft
< 800m
< 200 ft
Symbols :   Thunderstorms  Fog  Heavy snow  Heavy precipitations  Wind > 20 kt






- Airport Elevation : 254 ft


KMMT - Mc Entire JNGB

CURRENT METAR :
  • 080656Z AUTO 06005KT 10SM CLR 05/01 A3038 RMK AO2 SLP291 T00530012 $

EXPIRED METARs :
  • 080556Z AUTO 05005KT 10SM CLR 06/02 A3038 RMK AO2 SLP291 T00620019 10070 20062 $
  • 080456Z AUTO 06005KT 10SM CLR 07/03 A3037 RMK AO2 SLP287 T00720029 401720038 $

TAF TAF KMMT
Valid from the 08 at 00:00 until the 09 at 06:00 UTC


080000Z 0800/0906 06006KT 9999 FEW100 QNH3025INS
BECMG 0818/0819 05006KT 9999 BKN020 QNH3036INS TX18/0820Z TN02/0813Z



MET'MAP, your aeronautical weather chart ! - Copyright ORBIFLY December 2007 - Disclaimer

ORBIFLY MET'MAP TEAM :

Programming & Development : Alexandra Zaïnal
Concept & original design : Baudouin d'Aumeries
Assistance for programming : Marc-Olivier Méhu
Technical & hardware support : Manuel Goepfert

Contact : metmap@orbifly.com




SOURCES & CREDITS :

   NOAA       Earth
Advisory